Dodsland, Canada
Current Conditions -  °F | °C
As of 12:44 PM on Thursday 30 Oct 2014 (Local Time) from CYKY Reporting Station
Overcast Overcast  
Wind Chill: 20°   Ceiling: 800
Heat Index: 32°   Visibility: 15mi
Dew Point: 28°   Wind: 18mph
Humidity: 87%   Direction: 130°SE
Pressure: 30.37"   Gusts: NA
Location:  51.8°N, 108.83°W
Report Text: CYKY 301844Z 13016KT 15SM OVC008 M00/M02 A3037 RMK SC8 SLP315
Loading
Personal Weather Stations






























Interactive Weather Map
Tropical Storm Tracking
New forecast layout! Learn more

10-Day Weather Forecast

Advertisements
Track Severe Weather on mobile